Time;durP1;ratioP1;P1;durP2;ratioP2;P2;SDS_P1;SDS_P2;PMS_P1;PMS_P2;Temp;Humidity;BMP_temperature;BMP_pressure;BME280_temperature;BME280_humidity;BME280_pressure;Samples;Min_cycle;Max_cycle;Signal;HPM_P1;HPM_P2
2022/05/09 00:01:16;;;;;;;5.47;1.73;;;16.60;99.90;;;;;;5094184;28;20200;-64
2022/05/09 00:03:44;;;;;;;4.33;1.40;;;16.60;99.90;;;;;;5095335;28;20176;-64
2022/05/09 00:06:12;;;;;;;4.70;1.70;;;16.30;99.90;;;;;;5094923;28;20183;-65
2022/05/09 00:08:42;;;;;;;3.73;1.67;;;16.40;99.90;;;;;;5094572;28;20184;-64
2022/05/09 00:11:11;;;;;;;2.30;1.37;;;16.50;99.90;;;;;;5093770;28;20673;-65
2022/05/09 00:13:40;;;;;;;3.77;1.80;;;16.50;99.90;;;;;;5093289;28;20235;-65
2022/05/09 00:16:08;;;;;;;2.90;1.50;;;16.40;99.90;;;;;;5094117;28;20184;-67
2022/05/09 00:18:35;;;;;;;2.93;1.57;;;16.50;99.90;;;;;;5108725;28;20247;-65
2022/05/09 00:21:04;;;;;;;4.17;1.63;;;16.60;99.90;;;;;;5096216;28;20190;-64
2022/05/09 00:23:32;;;;;;;3.93;1.50;;;16.80;99.90;;;;;;5094748;28;20234;-67
2022/05/09 00:26:01;;;;;;;5.00;1.50;;;16.70;99.90;;;;;;5094745;28;20198;-65
2022/05/09 00:28:29;;;;;;;6.00;1.90;;;16.80;99.90;;;;;;5094691;28;20187;-65
2022/05/09 00:30:57;;;;;;;2.50;1.73;;;16.80;99.90;;;;;;5094789;28;20211;-65
2022/05/09 00:33:25;;;;;;;6.77;1.63;;;16.80;99.90;;;;;;5094710;28;20186;-66
2022/05/09 00:35:53;;;;;;;1.83;1.00;;;16.90;99.90;;;;;;5094335;28;20179;-66
2022/05/09 00:38:21;;;;;;;4.03;1.63;;;16.70;99.90;;;;;;5094641;28;20527;-65
2022/05/09 00:43:37;;;;;;;2.57;1.37;;;16.80;99.90;;;;;;5094173;28;20320;-65
2022/05/09 00:46:06;;;;;;;3.13;1.47;;;16.90;99.90;;;;;;5091372;28;20631;-65
2022/05/09 00:48:33;;;;;;;4.37;1.37;;;16.80;99.90;;;;;;5094050;28;20636;-66
2022/05/09 00:51:03;;;;;;;3.17;1.37;;;16.80;99.90;;;;;;5093648;28;20844;-65
2022/05/09 00:53:33;;;;;;;4.73;1.93;;;16.90;99.90;;;;;;5094018;28;20259;-65
2022/05/09 00:56:05;;;;;;;6.40;1.77;;;16.60;99.90;;;;;;5093658;28;20227;-65
2022/05/09 00:58:47;;;;;;;2.53;1.50;;;16.70;99.90;;;;;;5094481;28;20562;-66
2022/05/09 01:01:15;;;;;;;6.63;1.93;;;16.80;99.90;;;;;;5093991;28;20183;-66
2022/05/09 01:03:45;;;;;;;4.57;1.90;;;16.60;99.90;;;;;;5094067;28;20577;-66
2022/05/09 01:06:13;;;;;;;7.40;1.90;;;16.50;99.90;;;;;;5094199;28;20607;-67
2022/05/09 01:08:41;;;;;;;3.33;1.70;;;16.60;99.90;;;;;;5094060;28;20183;-66
2022/05/09 01:11:12;;;;;;;5.57;1.90;;;16.40;99.90;;;;;;5094110;28;20224;-66
2022/05/09 01:13:51;;;;;;;4.93;1.60;;;16.30;99.90;;;;;;5093989;28;20233;-66
2022/05/09 01:16:21;;;;;;;2.70;2.00;;;16.20;99.90;;;;;;5093993;28;20227;-66
2022/05/09 01:18:49;;;;;;;4.63;2.00;;;16.20;99.90;;;;;;5093747;28;20190;-66
2022/05/09 01:21:42;;;;;;;6.17;1.97;;;16.30;99.90;;;;;;5093599;28;20175;-66
2022/05/09 01:24:20;;;;;;;4.43;1.70;;;16.50;99.90;;;;;;5092780;28;20235;-66
2022/05/09 01:26:47;;;;;;;6.77;1.73;;;16.40;99.90;;;;;;5093888;28;20675;-66
2022/05/09 01:29:40;;;;;;;5.43;2.30;;;16.10;99.90;;;;;;5093149;28;20258;-66
2022/05/09 01:32:11;;;;;;;3.47;1.90;;;16.20;99.90;;;;;;5091890;28;20188;-66
2022/05/09 01:34:45;;;;;;;6.67;1.87;;;16.30;99.90;;;;;;5093015;28;20179;-64
2022/05/09 01:37:13;;;;;;;6.37;1.90;;;16.40;99.90;;;;;;5092984;28;20178;-66
2022/05/09 01:39:41;;;;;;;3.83;1.53;;;16.40;99.90;;;;;;5093137;28;20175;-66
2022/05/09 01:42:10;;;;;;;3.33;2.10;;;16.40;99.90;;;;;;5072916;28;20583;-66
2022/05/09 01:44:38;;;;;;;4.50;1.60;;;16.20;99.90;;;;;;5087600;28;20179;-66
2022/05/09 01:49:51;;;;;;;3.57;1.80;;;16.40;99.90;;;;;;5093011;28;20278;-66
2022/05/09 01:52:21;;;;;;;2.60;1.63;;;16.50;99.90;;;;;;5093147;28;20207;-66
2022/05/09 01:54:49;;;;;;;6.13;1.93;;;16.60;99.90;;;;;;5091563;28;20223;-65
2022/05/09 01:57:16;;;;;;;2.93;1.43;;;16.60;99.90;;;;;;5092844;28;20186;-65
2022/05/09 01:59:44;;;;;;;3.63;1.70;;;16.80;99.90;;;;;;5093070;28;20776;-65
2022/05/09 02:02:18;;;;;;;5.03;1.80;;;16.80;99.90;;;;;;5092956;28;20653;-65
2022/05/09 02:04:47;;;;;;;3.97;1.53;;;16.60;99.90;;;;;;5093033;28;20205;-66
2022/05/09 02:07:17;;;;;;;4.27;1.23;;;16.90;99.90;;;;;;5093086;28;20177;-66
2022/05/09 02:09:48;;;;;;;3.50;1.50;;;17.00;99.90;;;;;;5092584;28;20198;-66
2022/05/09 02:12:17;;;;;;;5.00;1.67;;;16.90;99.90;;;;;;5092891;28;20187;-67
2022/05/09 02:14:45;;;;;;;2.70;1.40;;;17.00;99.90;;;;;;5092750;28;20168;-65
2022/05/09 02:17:13;;;;;;;1.87;1.20;;;17.00;99.90;;;;;;5092721;28;20199;-66
2022/05/09 02:19:42;;;;;;;1.67;1.30;;;16.60;99.90;;;;;;5092800;28;20175;-66
2022/05/09 02:22:10;;;;;;;2.00;1.00;;;16.50;99.90;;;;;;5092268;28;20164;-66
2022/05/09 02:24:41;;;;;;;1.87;1.07;;;16.60;99.90;;;;;;5092461;28;20727;-67
2022/05/09 02:27:12;;;;;;;1.60;1.27;;;16.60;99.90;;;;;;5092440;28;20171;-66
2022/05/09 02:29:42;;;;;;;1.67;1.10;;;16.60;99.90;;;;;;5092334;28;20243;-66
2022/05/09 02:32:11;;;;;;;2.67;1.30;;;16.60;99.90;;;;;;5094737;28;20178;-66
2022/05/09 02:34:38;;;;;;;3.43;1.43;;;16.80;99.90;;;;;;5099813;28;20721;-65
2022/05/09 02:37:06;;;;;;;2.33;1.20;;;17.10;99.90;;;;;;5092291;28;20188;-66
2022/05/09 02:39:33;;;;;;;3.53;1.40;;;16.90;99.90;;;;;;5092384;28;20179;-65
2022/05/09 02:42:01;;;;;;;3.00;1.40;;;17.00;99.90;;;;;;5092396;28;20189;-66
2022/05/09 02:44:29;;;;;;;2.67;1.23;;;17.10;99.90;;;;;;5092299;28;20198;-66
2022/05/09 02:46:56;;;;;;;3.47;1.50;;;16.90;99.90;;;;;;5092521;28;20167;-65
2022/05/09 02:49:24;;;;;;;2.03;1.20;;;16.80;99.90;;;;;;5091971;28;20187;-66
2022/05/09 02:51:52;;;;;;;3.37;1.40;;;16.90;99.90;;;;;;5091822;28;20720;-66
2022/05/09 02:54:19;;;;;;;4.00;1.43;;;16.70;99.90;;;;;;5091601;28;20202;-64
2022/05/09 02:56:46;;;;;;;2.27;1.23;;;16.50;99.90;;;;;;5091716;28;20277;-66
2022/05/09 02:59:14;;;;;;;1.90;1.13;;;16.50;99.90;;;;;;5090795;28;20191;-65
2022/05/09 03:01:41;;;;;;;1.80;1.00;;;16.20;99.90;;;;;;5091856;28;20179;-64
2022/05/09 03:06:54;;;;;;;1.53;1.00;;;16.30;99.90;;;;;;5084649;28;20328;-66
2022/05/09 03:09:21;;;;;;;2.23;1.00;;;16.40;99.90;;;;;;5090402;28;20652;-66
2022/05/09 03:11:49;;;;;;;3.13;1.47;;;16.50;99.90;;;;;;5091762;28;20207;-66
2022/05/09 03:14:16;;;;;;;2.70;1.17;;;16.70;99.90;;;;;;5091582;28;20175;-65
2022/05/09 03:16:43;;;;;;;1.60;1.50;;;16.70;99.90;;;;;;5091972;28;20179;-66
2022/05/09 03:19:11;;;;;;;2.53;1.20;;;16.90;99.90;;;;;;5091670;28;20175;-66
2022/05/09 03:21:38;;;;;;;4.03;1.50;;;16.80;99.90;;;;;;5091637;28;20183;-66
2022/05/09 03:24:06;;;;;;;1.77;1.13;;;16.80;99.90;;;;;;5091553;28;20183;-67
2022/05/09 03:26:33;;;;;;;1.87;1.10;;;16.90;99.90;;;;;;5091161;28;20722;-65
2022/05/09 03:29:01;;;;;;;5.43;1.40;;;16.60;99.90;;;;;;5091661;28;20183;-65
2022/05/09 03:31:29;;;;;;;2.93;1.40;;;16.60;99.90;;;;;;5091255;28;20302;-65
2022/05/09 03:33:57;;;;;;;2.67;1.50;;;16.50;99.90;;;;;;5091365;28;20178;-66
2022/05/09 03:36:24;;;;;;;4.17;1.43;;;16.80;99.90;;;;;;5095446;28;20179;-67
2022/05/09 03:38:51;;;;;;;2.60;1.40;;;16.80;99.90;;;;;;5095743;28;20641;-67
2022/05/09 03:41:20;;;;;;;2.60;1.63;;;16.90;99.90;;;;;;5095714;28;20175;-67
2022/05/09 03:43:48;;;;;;;1.90;1.60;;;16.90;99.90;;;;;;5095287;28;20183;-66
2022/05/09 03:46:15;;;;;;;1.80;1.10;;;16.90;99.90;;;;;;5095256;28;20175;-66
2022/05/09 03:48:43;;;;;;;3.57;1.40;;;16.90;99.90;;;;;;5095625;28;20629;-67
2022/05/09 03:51:12;;;;;;;1.83;1.33;;;16.80;99.90;;;;;;5095221;28;20695;-66
2022/05/09 03:53:39;;;;;;;4.17;1.70;;;16.90;99.90;;;;;;5095502;28;20641;-66
2022/05/09 03:56:07;;;;;;;1.83;1.37;;;17.00;99.90;;;;;;5093669;28;20315;-66
2022/05/09 03:58:35;;;;;;;2.70;1.63;;;17.10;99.90;;;;;;5094934;28;20214;-66
2022/05/09 04:01:03;;;;;;;3.77;1.80;;;17.20;99.90;;;;;;5095301;28;20298;-66
2022/05/09 04:03:31;;;;;;;3.80;1.40;;;17.30;99.90;;;;;;5095139;28;20175;-66
2022/05/09 04:05:58;;;;;;;2.43;1.50;;;17.50;99.90;;;;;;5094748;28;20218;-66
2022/05/09 04:08:25;;;;;;;3.07;1.80;;;17.30;99.90;;;;;;5093200;28;20180;-66
2022/05/09 04:10:58;;;;;;;5.03;1.90;;;17.10;99.90;;;;;;5094994;28;20214;-66
2022/05/09 04:13:25;;;;;;;1.97;1.77;;;17.00;99.90;;;;;;5094920;28;20175;-66
2022/05/09 04:18:43;;;;;;;4.77;1.80;;;17.10;99.90;;;;;;5094725;28;20271;-65
2022/05/09 04:21:13;;;;;;;2.87;1.90;;;17.20;99.90;;;;;;5094895;28;20739;-65
2022/05/09 04:23:41;;;;;;;2.93;1.53;;;17.40;99.90;;;;;;5094657;28;20861;-65
2022/05/09 04:26:08;;;;;;;4.23;1.60;;;17.40;99.90;;;;;;5094921;28;20279;-66
2022/05/09 04:28:35;;;;;;;2.00;1.60;;;17.40;99.90;;;;;;5094295;28;20187;-66
2022/05/09 04:31:03;;;;;;;1.97;1.50;;;17.40;99.90;;;;;;5094692;28;20305;-65
2022/05/09 04:33:31;;;;;;;5.23;1.97;;;17.40;99.90;;;;;;5094313;28;20653;-65
2022/05/09 04:35:58;;;;;;;2.20;1.57;;;17.20;99.90;;;;;;5094422;28;20194;-66
2022/05/09 04:38:26;;;;;;;2.80;2.10;;;17.30;99.90;;;;;;5093563;28;20597;-66
2022/05/09 04:40:56;;;;;;;3.37;1.80;;;17.40;99.90;;;;;;5093029;28;20237;-66
2022/05/09 04:43:26;;;;;;;2.47;2.13;;;17.30;99.90;;;;;;5094267;28;20194;-66
2022/05/09 04:45:53;;;;;;;3.30;2.00;;;17.40;99.90;;;;;;5094084;28;20191;-66
2022/05/09 04:48:22;;;;;;;2.17;1.70;;;17.60;99.90;;;;;;5093994;28;20214;-66
2022/05/09 04:50:49;;;;;;;5.27;1.60;;;17.40;99.90;;;;;;5094452;28;20576;-66
2022/05/09 04:53:17;;;;;;;3.60;1.77;;;17.30;99.90;;;;;;5094440;28;20163;-66
2022/05/09 04:55:45;;;;;;;5.43;2.07;;;17.20;99.90;;;;;;5093954;28;20712;-66
2022/05/09 04:58:15;;;;;;;2.10;1.70;;;17.10;99.90;;;;;;5094041;28;20178;-66
2022/05/09 05:00:43;;;;;;;4.10;1.80;;;17.20;99.90;;;;;;5094174;28;20183;-65
2022/05/09 05:03:10;;;;;;;2.53;1.40;;;17.30;99.90;;;;;;5094301;28;20232;-66
2022/05/09 05:05:38;;;;;;;3.03;1.43;;;17.20;99.90;;;;;;5094186;28;20175;-66
2022/05/09 05:08:06;;;;;;;4.03;1.53;;;17.20;99.90;;;;;;5093890;28;20671;-66
2022/05/09 05:10:34;;;;;;;3.03;1.50;;;17.30;99.90;;;;;;5073761;28;20227;-66
2022/05/09 05:13:03;;;;;;;4.47;1.80;;;17.20;99.90;;;;;;5080908;28;20624;-65
2022/05/09 05:15:32;;;;;;;2.90;1.60;;;17.30;99.90;;;;;;5084463;28;20237;-67
2022/05/09 05:17:59;;;;;;;3.07;1.40;;;17.40;99.90;;;;;;5083427;28;20156;-67
2022/05/09 05:20:27;;;;;;;2.90;1.37;;;17.30;99.90;;;;;;5084380;28;20164;-66
2022/05/09 05:22:55;;;;;;;2.20;1.40;;;17.40;99.90;;;;;;5075364;28;20642;-66
2022/05/09 05:25:29;;;;;;;3.57;1.70;;;17.20;99.90;;;;;;5073556;28;20215;-66
2022/05/09 05:27:57;;;;;;;2.83;1.70;;;17.40;99.90;;;;;;5073363;28;20176;-66
2022/05/09 05:30:25;;;;;;;3.73;1.73;;;17.30;99.90;;;;;;5073526;28;20294;-66
2022/05/09 05:32:55;;;;;;;3.47;1.60;;;17.30;99.90;;;;;;5073446;28;20172;-66
2022/05/09 05:35:24;;;;;;;6.07;1.77;;;17.20;99.90;;;;;;5073438;28;20167;-66
2022/05/09 05:37:53;;;;;;;1.80;1.23;;;17.20;99.90;;;;;;5073350;28;20187;-66
2022/05/09 05:40:21;;;;;;;4.73;2.00;;;17.10;99.90;;;;;;5073200;28;20176;-66
2022/05/09 05:42:49;;;;;;;2.03;1.50;;;17.10;99.90;;;;;;5073198;28;20169;-67
2022/05/09 05:45:18;;;;;;;2.23;1.50;;;17.20;99.90;;;;;;5075910;28;20180;-67
2022/05/09 05:47:47;;;;;;;1.90;1.40;;;17.10;99.90;;;;;;5072202;28;20176;-67
2022/05/09 05:50:16;;;;;;;4.83;1.63;;;17.10;99.90;;;;;;5072745;28;20297;-67
2022/05/09 05:52:43;;;;;;;2.43;1.70;;;17.20;99.90;;;;;;5073164;28;20175;-67
2022/05/09 05:55:12;;;;;;;3.37;1.57;;;17.20;99.90;;;;;;5072763;28;20227;-66
2022/05/09 05:57:42;;;;;;;1.50;1.33;;;17.10;99.90;;;;;;5072247;28;20241;-66
2022/05/09 06:00:18;;;;;;;1.67;1.40;;;17.00;99.90;;;;;;5073773;28;20176;-65
2022/05/09 06:02:46;;;;;;;2.43;1.37;;;17.00;99.90;;;;;;5093239;28;20569;-67
2022/05/09 06:05:16;;;;;;;4.50;1.50;;;17.00;99.90;;;;;;5092947;28;20178;-64
2022/05/09 06:07:43;;;;;;;2.23;1.53;;;17.00;99.90;;;;;;5093034;28;20182;-66
2022/05/09 06:10:12;;;;;;;2.37;1.43;;;17.00;99.90;;;;;;5092380;28;20231;-66
2022/05/09 06:12:40;;;;;;;2.40;1.37;;;17.00;99.90;;;;;;5093058;28;20244;-65
2022/05/09 06:17:54;;;;;;;2.27;1.40;;;17.10;99.90;;;;;;5093104;28;20193;-66
2022/05/09 06:20:22;;;;;;;2.53;1.33;;;17.00;99.90;;;;;;5092840;28;20201;-66
2022/05/09 06:22:50;;;;;;;4.10;1.43;;;16.90;99.90;;;;;;5092646;28;20220;-66
2022/05/09 06:25:19;;;;;;;2.30;1.43;;;16.90;99.90;;;;;;5092665;28;20610;-66
2022/05/09 06:27:48;;;;;;;1.83;1.13;;;16.90;99.90;;;;;;5092626;28;20261;-66
2022/05/09 06:30:17;;;;;;;2.43;1.23;;;16.90;99.90;;;;;;5091137;28;20235;-66
2022/05/09 06:32:45;;;;;;;2.17;1.10;;;16.90;99.90;;;;;;5092561;28;20180;-66
2022/05/09 06:35:15;;;;;;;2.90;1.57;;;16.90;99.90;;;;;;5092522;28;20252;-66
2022/05/09 06:37:43;;;;;;;3.90;2.03;;;16.80;99.90;;;;;;5092595;28;20660;-66
2022/05/09 06:40:12;;;;;;;3.87;1.47;;;16.80;99.90;;;;;;5092297;28;20261;-67
2022/05/09 06:42:40;;;;;;;4.53;1.50;;;16.60;99.90;;;;;;5092231;28;20167;-66
2022/05/09 06:45:08;;;;;;;5.70;1.63;;;16.60;99.90;;;;;;5092190;28;20172;-66
2022/05/09 06:47:43;;;;;;;2.50;1.80;;;16.50;99.90;;;;;;5092391;28;20171;-66
2022/05/09 06:50:10;;;;;;;1.57;1.47;;;16.50;99.90;;;;;;5092242;28;20542;-66
2022/05/09 06:52:38;;;;;;;3.67;1.60;;;16.50;99.90;;;;;;5092379;28;20284;-67
2022/05/09 06:55:06;;;;;;;2.47;1.80;;;16.50;99.90;;;;;;5091562;28;20227;-67
2022/05/09 06:57:36;;;;;;;5.60;1.77;;;16.40;99.90;;;;;;5092152;28;20175;-66
2022/05/09 07:00:06;;;;;;;3.43;1.80;;;16.50;99.90;;;;;;5092125;28;20214;-67
2022/05/09 07:02:34;;;;;;;4.30;1.90;;;16.50;99.90;;;;;;5091676;28;20175;-67
2022/05/09 07:05:05;;;;;;;4.27;1.60;;;16.40;99.90;;;;;;5088373;28;20542;-66
2022/05/09 07:07:32;;;;;;;2.77;2.00;;;16.50;99.90;;;;;;5092114;28;20209;-67
2022/05/09 07:09:59;;;;;;;4.07;1.80;;;16.40;99.90;;;;;;5090380;28;20197;-66
2022/05/09 07:12:27;;;;;;;2.77;1.70;;;16.30;99.90;;;;;;5091930;28;20266;-67
2022/05/09 07:14:54;;;;;;;3.40;2.13;;;16.30;99.90;;;;;;5091527;28;20546;-66
2022/05/09 07:17:21;;;;;;;4.73;2.30;;;16.40;99.90;;;;;;5091676;28;20207;-66
2022/05/09 07:19:48;;;;;;;5.40;3.33;;;16.40;99.90;;;;;;5091408;28;20214;-66
2022/05/09 07:22:17;;;;;;;7.83;5.13;;;16.30;99.90;;;;;;5091466;28;20176;-66
2022/05/09 07:24:45;;;;;;;6.57;4.33;;;16.30;99.90;;;;;;5091259;28;20636;-66
2022/05/09 07:27:12;;;;;;;7.63;4.33;;;16.20;99.90;;;;;;5091134;28;20315;-66
2022/05/09 07:29:41;;;;;;;10.07;6.10;;;16.20;99.90;;;;;;5091905;28;20174;-67
2022/05/09 07:32:09;;;;;;;5.63;4.30;;;16.20;99.90;;;;;;5091018;28;20250;-67
2022/05/09 07:34:36;;;;;;;21.70;13.97;;;16.20;99.90;;;;;;5090887;28;20271;-66
2022/05/09 07:37:04;;;;;;;22.60;15.03;;;16.10;99.90;;;;;;5091413;28;20210;-66
2022/05/09 07:39:31;;;;;;;24.53;16.47;;;16.10;99.90;;;;;;5091874;28;20583;-67
2022/05/09 07:41:59;;;;;;;30.23;18.53;;;16.10;99.90;;;;;;5091629;28;20178;-67
2022/05/09 07:44:26;;;;;;;26.17;16.87;;;16.10;99.90;;;;;;5091364;28;20648;-67
2022/05/09 07:46:53;;;;;;;25.43;16.00;;;16.10;99.90;;;;;;5091367;28;20637;-66
2022/05/09 07:49:21;;;;;;;5.27;4.73;;;16.10;99.90;;;;;;5091584;28;20202;-67
2022/05/09 07:51:48;;;;;;;8.87;6.10;;;16.00;99.90;;;;;;5090251;28;20310;-67
2022/05/09 07:54:16;;;;;;;19.03;15.13;;;16.00;99.90;;;;;;5091210;28;20176;-67
2022/05/09 07:56:44;;;;;;;12.37;8.40;;;16.00;99.90;;;;;;5091646;28;20227;-67
2022/05/09 07:59:11;;;;;;;11.87;8.57;;;16.00;99.90;;;;;;5091412;28;20282;-66
2022/05/09 08:01:39;;;;;;;14.30;7.73;;;15.90;99.90;;;;;;5091381;28;20195;-66
2022/05/09 08:04:06;;;;;;;11.83;5.87;;;15.90;99.90;;;;;;5090665;28;20171;-66
2022/05/09 08:06:33;;;;;;;8.03;5.17;;;15.80;99.90;;;;;;5077052;28;20186;-67
2022/05/09 08:09:02;;;;;;;7.27;4.90;;;15.80;99.90;;;;;;5091702;28;20278;-65
2022/05/09 08:11:30;;;;;;;6.97;4.70;;;15.70;99.90;;;;;;5091438;28;20234;-68
2022/05/09 08:13:58;;;;;;;9.10;4.77;;;15.70;99.90;;;;;;5091397;28;20198;-66
2022/05/09 08:16:29;;;;;;;8.03;4.80;;;15.60;99.90;;;;;;5089742;28;20198;-67
2022/05/09 08:18:56;;;;;;;6.13;4.63;;;15.70;99.90;;;;;;5091264;28;20208;-66
2022/05/09 08:21:24;;;;;;;8.93;6.00;;;15.60;99.90;;;;;;5092952;28;20199;-67
2022/05/09 08:23:51;;;;;;;6.00;4.93;;;15.70;99.90;;;;;;5094376;28;20179;-66
2022/05/09 08:26:22;;;;;;;7.60;4.63;;;15.70;99.90;;;;;;5093359;28;20190;-67
2022/05/09 08:28:52;;;;;;;8.27;4.00;;;15.70;99.90;;;;;;5095068;28;20175;-66
2022/05/09 08:31:21;;;;;;;11.07;7.83;;;15.70;99.90;;;;;;5094357;28;20317;-66
2022/05/09 08:33:50;;;;;;;6.83;4.00;;;15.80;99.90;;;;;;5094859;28;20570;-67
2022/05/09 08:39:06;;;;;;;4.90;2.50;;;15.70;99.90;;;;;;5094790;28;20567;-67
2022/05/09 08:41:55;;;;;;;4.60;2.40;;;15.70;99.90;;;;;;5094336;28;20191;-67
2022/05/09 08:45:19;;;;;;;5.93;2.10;;;15.70;99.90;;;;;;5094606;28;20617;-66
2022/05/09 08:48:04;;;;;;;7.27;2.10;;;15.70;99.90;;;;;;5052133;28;20681;-67
2022/05/09 08:50:48;;;;;;;8.73;3.13;;;15.70;99.90;;;;;;5053915;28;20219;-67
2022/05/09 08:53:23;;;;;;;5.30;2.50;;;15.70;99.90;;;;;;5091347;28;20189;-67
2022/05/09 08:55:52;;;;;;;9.00;2.47;;;15.60;99.90;;;;;;5094281;28;20254;-66
2022/05/09 08:58:51;;;;;;;3.57;2.50;;;15.70;99.90;;;;;;5094186;28;20175;-67
2022/05/09 09:01:44;;;;;;;4.93;2.00;;;15.70;99.90;;;;;;5082808;28;20251;-67
2022/05/09 09:04:24;;;;;;;5.70;2.50;;;15.70;99.90;;;;;;5089680;28;20652;-67
2022/05/09 09:07:23;;;;;;;4.80;1.97;;;15.70;99.90;;;;;;5094389;28;20556;-66
2022/05/09 09:10:18;;;;;;;2.80;2.00;;;15.70;99.90;;;;;;5088940;28;20184;-67
2022/05/09 09:13:23;;;;;;;5.70;2.03;;;15.70;99.90;;;;;;5093397;28;21125;-65
2022/05/09 09:16:11;;;;;;;4.03;2.07;;;15.60;99.90;;;;;;5053231;28;20176;-66
2022/05/09 09:19:18;;;;;;;4.60;2.13;;;15.60;99.90;;;;;;5053661;28;20678;-66
2022/05/09 09:21:48;;;;;;;5.77;2.00;;;15.60;99.90;;;;;;5089352;28;20195;-68
2022/05/09 09:24:42;;;;;;;2.87;2.00;;;15.60;99.90;;;;;;5094546;28;20724;-67
2022/05/09 09:27:25;;;;;;;5.30;2.10;;;15.60;99.90;;;;;;5088223;28;20189;-68
2022/05/09 09:29:59;;;;;;;4.13;2.07;;;15.60;99.90;;;;;;5093154;28;20167;-67
2022/05/09 09:32:27;;;;;;;5.10;2.37;;;15.60;99.90;;;;;;5091885;28;20252;-67
2022/05/09 09:35:06;;;;;;;3.90;2.37;;;15.60;99.90;;;;;;5094482;28;20640;-70
2022/05/09 09:37:39;;;;;;;4.53;2.03;;;15.50;99.90;;;;;;5094986;28;20184;-67
2022/05/09 09:40:08;;;;;;;5.47;1.97;;;15.50;99.90;;;;;;5094728;28;20230;-67
2022/05/09 09:42:35;;;;;;;5.53;2.40;;;15.40;99.90;;;;;;5094777;28;20186;-68
2022/05/09 09:45:15;;;;;;;3.07;1.90;;;15.40;99.90;;;;;;5094878;28;20175;-68
2022/05/09 09:47:43;;;;;;;4.63;2.57;;;15.40;99.90;;;;;;5093133;28;20178;-68
2022/05/09 09:50:21;;;;;;;3.60;2.10;;;15.40;99.90;;;;;;5094478;28;20208;-67
2022/05/09 09:52:52;;;;;;;5.10;2.13;;;15.40;99.90;;;;;;5093830;28;20191;-67
2022/05/09 09:55:39;;;;;;;4.73;2.50;;;15.50;99.90;;;;;;5094298;28;20222;-68
2022/05/09 09:58:24;;;;;;;5.53;2.60;;;15.50;99.90;;;;;;5094452;28;20578;-67
2022/05/09 10:01:10;;;;;;;8.30;2.67;;;15.50;99.90;;;;;;5094668;28;20167;-67
2022/05/09 10:03:42;;;;;;;4.70;2.83;;;15.50;99.90;;;;;;5093243;28;20546;-67
2022/05/09 10:06:21;;;;;;;3.37;2.10;;;15.40;99.90;;;;;;5094302;28;20720;-67
2022/05/09 10:08:58;;;;;;;5.37;2.37;;;15.40;99.90;;;;;;5094552;28;20666;-67
2022/05/09 10:11:29;;;;;;;3.20;2.40;;;15.40;99.90;;;;;;5094159;28;20226;-67
2022/05/09 10:14:05;;;;;;;7.70;2.50;;;15.40;99.90;;;;;;5093727;28;20233;-67
2022/05/09 10:16:37;;;;;;;5.23;2.67;;;15.40;99.90;;;;;;5093927;28;20190;-66
2022/05/09 10:19:10;;;;;;;4.43;2.53;;;15.40;99.90;;;;;;5092965;28;20222;-67
2022/05/09 10:24:48;;;;;;;4.20;1.83;;;15.30;99.90;;;;;;5094275;28;20194;-68
2022/05/09 10:27:22;;;;;;;4.53;2.03;;;15.20;99.90;;;;;;5093619;28;20187;-68
2022/05/09 10:29:57;;;;;;;4.60;1.87;;;15.20;99.90;;;;;;5093306;28;20629;-68
2022/05/09 10:32:40;;;;;;;2.47;1.77;;;15.10;99.90;;;;;;5072303;28;20245;-66
2022/05/09 10:35:21;;;;;;;3.23;1.53;;;15.10;99.90;;;;;;5073474;28;20176;-67
2022/05/09 10:37:57;;;;;;;2.63;1.67;;;15.10;99.90;;;;;;5091306;28;20210;-67
2022/05/09 10:40:45;;;;;;;5.00;2.43;;;15.00;99.90;;;;;;5093928;28;20644;-67
2022/05/09 10:43:24;;;;;;;2.93;1.60;;;15.00;99.90;;;;;;5093088;28;20266;-67
2022/05/09 10:45:52;;;;;;;3.77;1.60;;;15.00;99.90;;;;;;5093360;28;20242;-67
2022/05/09 10:48:36;;;;;;;3.50;2.17;;;15.00;99.90;;;;;;5094383;28;20175;-68
2022/05/09 10:51:39;;;;;;;3.57;1.83;;;15.00;99.90;;;;;;5093533;28;20268;-68
2022/05/09 10:54:18;;;;;;;7.27;1.80;;;15.00;99.90;;;;;;5093540;28;20212;-67
2022/05/09 10:57:15;;;;;;;2.40;1.60;;;15.00;99.90;;;;;;5092243;28;20585;-67
2022/05/09 10:59:45;;;;;;;3.40;1.50;;;15.00;99.90;;;;;;5073348;28;20172;-68
2022/05/09 11:02:23;;;;;;;3.60;1.30;;;15.00;99.90;;;;;;5080445;28;20675;-67
2022/05/09 11:04:50;;;;;;;3.07;1.40;;;15.00;99.90;;;;;;5093141;28;20175;-67
2022/05/09 11:07:38;;;;;;;3.60;1.07;;;15.00;99.90;;;;;;5093222;28;20171;-67
2022/05/09 11:10:32;;;;;;;2.27;1.13;;;15.00;99.90;;;;;;5093066;28;20214;-68
2022/05/09 11:13:11;;;;;;;2.07;1.30;;;14.90;99.90;;;;;;5092153;28;20197;-68
2022/05/09 11:15:53;;;;;;;4.60;1.50;;;15.00;99.90;;;;;;5093883;28;20167;-67
2022/05/09 11:18:43;;;;;;;4.00;1.23;;;14.90;99.90;;;;;;5091260;28;20174;-67
2022/05/09 11:21:35;;;;;;;2.20;1.07;;;14.90;99.90;;;;;;5091769;28;20255;-67
2022/05/09 11:24:10;;;;;;;2.57;1.17;;;14.90;99.90;;;;;;5093222;28;20250;-67
2022/05/09 11:27:05;;;;;;;1.67;0.90;;;14.80;99.90;;;;;;5092648;28;20178;-67
2022/05/09 11:29:58;;;;;;;2.60;1.00;;;14.80;99.90;;;;;;5092891;28;20340;-66
2022/05/09 11:32:41;;;;;;;3.80;1.10;;;14.80;99.90;;;;;;5088010;28;20604;-67
2022/05/09 11:35:27;;;;;;;5.10;1.10;;;14.80;99.90;;;;;;5093191;28;20171;-67
2022/05/09 11:38:14;;;;;;;1.53;1.13;;;14.70;99.90;;;;;;5092832;28;20183;-67
2022/05/09 11:40:46;;;;;;;5.17;1.40;;;14.60;99.90;;;;;;5093271;28;20181;-68
2022/05/09 11:43:37;;;;;;;2.27;1.03;;;14.60;99.90;;;;;;5091674;28;20179;-67
2022/05/09 11:46:30;;;;;;;0.90;0.80;;;14.60;99.90;;;;;;5093148;28;20203;-68
2022/05/09 11:49:06;;;;;;;4.13;1.43;;;14.50;99.90;;;;;;5073300;28;20180;-68
2022/05/09 11:51:50;;;;;;;2.57;1.47;;;14.50;99.90;;;;;;5081626;28;20219;-67
2022/05/09 11:54:25;;;;;;;3.70;1.10;;;14.50;99.90;;;;;;5089662;28;20180;-67
2022/05/09 11:57:00;;;;;;;2.07;1.37;;;14.50;99.90;;;;;;5094659;28;20196;-67
2022/05/09 11:59:31;;;;;;;5.43;1.73;;;14.40;99.90;;;;;;5094513;28;20170;-67
2022/05/09 12:02:06;;;;;;;5.77;1.60;;;14.40;99.90;;;;;;5095965;28;20183;-67
2022/05/09 12:04:43;;;;;;;2.83;1.60;;;14.40;99.90;;;;;;5095420;28;20183;-66
2022/05/09 12:07:22;;;;;;;2.63;1.30;;;14.40;99.90;;;;;;5093691;28;20229;-67
2022/05/09 12:10:15;;;;;;;2.30;1.40;;;14.40;99.90;;;;;;5097184;28;20177;-67
2022/05/09 12:12:49;;;;;;;2.33;1.33;;;14.40;99.90;;;;;;5090918;28;20195;-67
2022/05/09 12:15:17;;;;;;;2.70;1.10;;;14.40;99.90;;;;;;5096538;28;20206;-67
2022/05/09 12:18:08;;;;;;;3.10;1.43;;;14.40;99.90;;;;;;5095749;28;20187;-68
2022/05/09 12:20:37;;;;;;;1.43;1.20;;;14.50;99.90;;;;;;5096360;28;20186;-67
2022/05/09 12:23:31;;;;;;;4.13;1.40;;;14.50;99.90;;;;;;5096421;28;20182;-68
2022/05/09 12:26:03;;;;;;;6.00;1.50;;;14.50;99.90;;;;;;5095733;28;20179;-66
2022/05/09 12:28:34;;;;;;;2.10;1.40;;;14.50;99.90;;;;;;5096303;28;20570;-66
2022/05/09 12:31:19;;;;;;;2.27;1.40;;;14.50;99.90;;;;;;5096268;28;20540;-66
2022/05/09 12:33:47;;;;;;;1.93;0.90;;;14.50;99.90;;;;;;5096283;28;20221;-67
2022/05/09 12:36:19;;;;;;;1.87;1.07;;;14.50;99.90;;;;;;5096081;28;20214;-67
2022/05/09 12:38:51;;;;;;;3.17;1.00;;;14.50;99.90;;;;;;5096201;28;20170;-66
2022/05/09 12:41:25;;;;;;;2.60;1.23;;;14.60;99.90;;;;;;5095917;28;20176;-67
2022/05/09 12:44:21;;;;;;;2.27;1.03;;;14.60;99.90;;;;;;5096336;28;20163;-67
2022/05/09 12:46:57;;;;;;;2.93;1.40;;;14.60;99.90;;;;;;5092937;28;20532;-68
2022/05/09 12:49:37;;;;;;;3.07;1.17;;;14.60;99.90;;;;;;5091426;28;20190;-67
2022/05/09 12:52:05;;;;;;;1.77;1.10;;;14.60;99.90;;;;;;5095783;28;20297;-67
2022/05/09 12:54:35;;;;;;;2.57;1.30;;;14.50;99.90;;;;;;5095285;28;20176;-66
2022/05/09 12:57:05;;;;;;;2.57;1.20;;;14.50;99.90;;;;;;5095809;28;20561;-68
2022/05/09 12:59:50;;;;;;;2.87;1.60;;;14.50;99.90;;;;;;5095317;28;20186;-68
2022/05/09 13:02:24;;;;;;;2.53;1.37;;;14.50;99.90;;;;;;5095582;28;20560;-68
2022/05/09 13:04:53;;;;;;;2.00;1.37;;;14.50;99.90;;;;;;5096179;28;20182;-67
2022/05/09 13:07:21;;;;;;;3.50;1.57;;;14.50;99.90;;;;;;5095074;28;20220;-67
2022/05/09 13:09:53;;;;;;;3.93;1.33;;;14.50;99.90;;;;;;5095142;28;20215;-67
2022/05/09 13:12:36;;;;;;;1.33;1.07;;;14.50;99.90;;;;;;5095474;28;20642;-67
2022/05/09 13:15:17;;;;;;;1.77;1.30;;;14.50;99.90;;;;;;5095381;28;20203;-67
2022/05/09 13:17:58;;;;;;;1.90;1.20;;;14.50;99.90;;;;;;5095188;28;20644;-66
2022/05/09 13:20:30;;;;;;;2.30;0.87;;;14.50;99.90;;;;;;5095013;28;20569;-67
2022/05/09 13:23:05;;;;;;;3.63;1.30;;;14.50;99.90;;;;;;5095237;28;20186;-68
2022/05/09 13:25:50;;;;;;;3.63;1.63;;;14.50;99.90;;;;;;5095242;28;20182;-67
2022/05/09 13:28:21;;;;;;;2.30;1.17;;;14.50;99.90;;;;;;5095131;28;20636;-67
2022/05/09 13:30:52;;;;;;;2.90;1.47;;;14.60;99.90;;;;;;5094806;28;20215;-66
2022/05/09 13:33:25;;;;;;;3.73;1.53;;;14.60;99.90;;;;;;5094536;28;20517;-67